sensor_id;sensor_type;location;lat;lon;timestamp;P1;durP1;ratioP1;P2;durP2;ratioP2
21170;SDS011;10743;52.160;20.910;2023-06-26T00:00:54;218.30;;;62.85;;
21170;SDS011;10743;52.160;20.910;2023-06-26T00:03:21;217.25;;;61.97;;
21170;SDS011;10743;52.160;20.910;2023-06-26T00:05:49;218.77;;;63.28;;
21170;SDS011;10743;52.160;20.910;2023-06-26T00:08:17;216.13;;;62.80;;
21170;SDS011;10743;52.160;20.910;2023-06-26T00:10:44;215.40;;;62.65;;
21170;SDS011;10743;52.160;20.910;2023-06-26T00:13:12;218.07;;;62.85;;
21170;SDS011;10743;52.160;20.910;2023-06-26T00:15:39;216.65;;;62.78;;
21170;SDS011;10743;52.160;20.910;2023-06-26T00:18:06;219.43;;;63.03;;
21170;SDS011;10743;52.160;20.910;2023-06-26T00:20:33;217.20;;;62.80;;
21170;SDS011;10743;52.160;20.910;2023-06-26T00:23:01;218.75;;;63.33;;
21170;SDS011;10743;52.160;20.910;2023-06-26T00:25:30;216.35;;;62.05;;
21170;SDS011;10743;52.160;20.910;2023-06-26T00:27:57;217.30;;;62.13;;
21170;SDS011;10743;52.160;20.910;2023-06-26T00:30:25;212.32;;;61.58;;
21170;SDS011;10743;52.160;20.910;2023-06-26T00:32:52;217.63;;;62.33;;
21170;SDS011;10743;52.160;20.910;2023-06-26T00:35:19;215.30;;;62.03;;
21170;SDS011;10743;52.160;20.910;2023-06-26T00:37:46;217.27;;;62.13;;
21170;SDS011;10743;52.160;20.910;2023-06-26T00:40:13;215.15;;;61.85;;
21170;SDS011;10743;52.160;20.910;2023-06-26T00:42:40;217.05;;;61.83;;
21170;SDS011;10743;52.160;20.910;2023-06-26T00:45:07;214.02;;;61.88;;
21170;SDS011;10743;52.160;20.910;2023-06-26T00:47:34;221.38;;;62.80;;
21170;SDS011;10743;52.160;20.910;2023-06-26T00:50:02;216.45;;;62.05;;
21170;SDS011;10743;52.160;20.910;2023-06-26T00:52:31;222.90;;;63.05;;
21170;SDS011;10743;52.160;20.910;2023-06-26T00:54:58;214.82;;;62.22;;
21170;SDS011;10743;52.160;20.910;2023-06-26T00:57:26;214.05;;;62.05;;
21170;SDS011;10743;52.160;20.910;2023-06-26T00:59:54;216.13;;;62.35;;
21170;SDS011;10743;52.160;20.910;2023-06-26T01:02:21;216.05;;;61.88;;
21170;SDS011;10743;52.160;20.910;2023-06-26T01:04:49;221.48;;;62.85;;
21170;SDS011;10743;52.160;20.910;2023-06-26T01:07:17;216.15;;;62.35;;
21170;SDS011;10743;52.160;20.910;2023-06-26T01:09:47;214.20;;;62.28;;
21170;SDS011;10743;52.160;20.910;2023-06-26T01:12:15;217.85;;;62.53;;
21170;SDS011;10743;52.160;20.910;2023-06-26T01:14:42;216.55;;;62.78;;
21170;SDS011;10743;52.160;20.910;2023-06-26T01:17:09;213.30;;;61.33;;
21170;SDS011;10743;52.160;20.910;2023-06-26T01:19:41;216.35;;;62.78;;
21170;SDS011;10743;52.160;20.910;2023-06-26T01:24:52;218.40;;;63.03;;
21170;SDS011;10743;52.160;20.910;2023-06-26T01:27:48;219.80;;;62.53;;
21170;SDS011;10743;52.160;20.910;2023-06-26T01:30:17;217.95;;;62.75;;
21170;SDS011;10743;52.160;20.910;2023-06-26T01:32:45;212.18;;;61.83;;
21170;SDS011;10743;52.160;20.910;2023-06-26T01:35:14;216.63;;;62.70;;
21170;SDS011;10743;52.160;20.910;2023-06-26T01:37:42;213.10;;;62.42;;
21170;SDS011;10743;52.160;20.910;2023-06-26T01:40:09;212.70;;;61.42;;
21170;SDS011;10743;52.160;20.910;2023-06-26T01:42:38;217.60;;;62.65;;
21170;SDS011;10743;52.160;20.910;2023-06-26T01:47:50;221.68;;;62.58;;
21170;SDS011;10743;52.160;20.910;2023-06-26T01:50:22;216.30;;;62.17;;
21170;SDS011;10743;52.160;20.910;2023-06-26T01:52:58;210.90;;;61.65;;
21170;SDS011;10743;52.160;20.910;2023-06-26T01:58:15;216.88;;;62.47;;
21170;SDS011;10743;52.160;20.910;2023-06-26T02:00:47;213.45;;;62.20;;
21170;SDS011;10743;52.160;20.910;2023-06-26T02:03:14;213.27;;;61.83;;
21170;SDS011;10743;52.160;20.910;2023-06-26T02:05:41;213.55;;;62.75;;
21170;SDS011;10743;52.160;20.910;2023-06-26T02:08:09;212.85;;;62.13;;
21170;SDS011;10743;52.160;20.910;2023-06-26T02:10:36;222.57;;;62.95;;
21170;SDS011;10743;52.160;20.910;2023-06-26T02:13:03;215.85;;;62.53;;
21170;SDS011;10743;52.160;20.910;2023-06-26T02:15:31;213.40;;;61.60;;
21170;SDS011;10743;52.160;20.910;2023-06-26T02:17:59;213.55;;;61.75;;
21170;SDS011;10743;52.160;20.910;2023-06-26T02:20:26;215.40;;;61.63;;
21170;SDS011;10743;52.160;20.910;2023-06-26T02:22:53;213.75;;;61.78;;
21170;SDS011;10743;52.160;20.910;2023-06-26T02:25:20;212.02;;;61.55;;
21170;SDS011;10743;52.160;20.910;2023-06-26T02:27:47;213.73;;;62.08;;
21170;SDS011;10743;52.160;20.910;2023-06-26T02:30:14;216.85;;;62.45;;
21170;SDS011;10743;52.160;20.910;2023-06-26T02:32:41;216.25;;;62.67;;
21170;SDS011;10743;52.160;20.910;2023-06-26T02:35:09;213.45;;;62.20;;
21170;SDS011;10743;52.160;20.910;2023-06-26T02:37:40;216.50;;;62.25;;
21170;SDS011;10743;52.160;20.910;2023-06-26T02:40:08;212.05;;;61.42;;
21170;SDS011;10743;52.160;20.910;2023-06-26T02:42:38;217.98;;;62.50;;
21170;SDS011;10743;52.160;20.910;2023-06-26T02:45:05;214.15;;;60.95;;
21170;SDS011;10743;52.160;20.910;2023-06-26T02:47:33;213.38;;;62.53;;
21170;SDS011;10743;52.160;20.910;2023-06-26T02:50:00;215.32;;;62.65;;
21170;SDS011;10743;52.160;20.910;2023-06-26T02:52:36;212.30;;;61.92;;
21170;SDS011;10743;52.160;20.910;2023-06-26T02:55:04;215.23;;;61.80;;
21170;SDS011;10743;52.160;20.910;2023-06-26T02:57:32;213.57;;;61.65;;
21170;SDS011;10743;52.160;20.910;2023-06-26T02:59:59;219.60;;;62.63;;
21170;SDS011;10743;52.160;20.910;2023-06-26T03:02:28;214.45;;;62.35;;
21170;SDS011;10743;52.160;20.910;2023-06-26T03:04:55;212.32;;;61.22;;
21170;SDS011;10743;52.160;20.910;2023-06-26T03:07:24;211.25;;;61.40;;
21170;SDS011;10743;52.160;20.910;2023-06-26T03:09:51;212.70;;;62.00;;
21170;SDS011;10743;52.160;20.910;2023-06-26T03:12:18;211.80;;;61.50;;
21170;SDS011;10743;52.160;20.910;2023-06-26T03:14:45;217.77;;;63.22;;
21170;SDS011;10743;52.160;20.910;2023-06-26T03:17:13;213.55;;;62.75;;
21170;SDS011;10743;52.160;20.910;2023-06-26T03:19:42;211.40;;;61.67;;
21170;SDS011;10743;52.160;20.910;2023-06-26T03:22:21;214.85;;;62.22;;
21170;SDS011;10743;52.160;20.910;2023-06-26T03:24:48;217.57;;;62.17;;
21170;SDS011;10743;52.160;20.910;2023-06-26T03:27:15;210.38;;;61.95;;
21170;SDS011;10743;52.160;20.910;2023-06-26T03:29:46;215.95;;;62.47;;
21170;SDS011;10743;52.160;20.910;2023-06-26T03:32:13;216.25;;;62.78;;
21170;SDS011;10743;52.160;20.910;2023-06-26T03:34:40;213.85;;;62.55;;
21170;SDS011;10743;52.160;20.910;2023-06-26T03:37:07;218.98;;;63.75;;
21170;SDS011;10743;52.160;20.910;2023-06-26T03:39:35;216.65;;;62.70;;
21170;SDS011;10743;52.160;20.910;2023-06-26T03:42:02;212.32;;;62.13;;
21170;SDS011;10743;52.160;20.910;2023-06-26T03:44:29;216.80;;;62.70;;
21170;SDS011;10743;52.160;20.910;2023-06-26T03:46:56;215.20;;;62.35;;
21170;SDS011;10743;52.160;20.910;2023-06-26T03:49:23;213.43;;;62.53;;
21170;SDS011;10743;52.160;20.910;2023-06-26T03:51:51;215.30;;;62.67;;
21170;SDS011;10743;52.160;20.910;2023-06-26T03:54:18;216.10;;;62.75;;
21170;SDS011;10743;52.160;20.910;2023-06-26T03:56:47;219.75;;;64.05;;
21170;SDS011;10743;52.160;20.910;2023-06-26T03:59:14;214.48;;;62.08;;
21170;SDS011;10743;52.160;20.910;2023-06-26T04:01:41;217.80;;;63.30;;
21170;SDS011;10743;52.160;20.910;2023-06-26T04:04:09;216.75;;;63.33;;
21170;SDS011;10743;52.160;20.910;2023-06-26T04:06:36;218.80;;;63.95;;
21170;SDS011;10743;52.160;20.910;2023-06-26T04:09:03;218.55;;;63.47;;
21170;SDS011;10743;52.160;20.910;2023-06-26T04:11:30;228.73;;;73.38;;
21170;SDS011;10743;52.160;20.910;2023-06-26T04:13:58;223.45;;;67.30;;
21170;SDS011;10743;52.160;20.910;2023-06-26T04:16:25;216.98;;;63.70;;
21170;SDS011;10743;52.160;20.910;2023-06-26T04:18:52;219.80;;;63.85;;
21170;SDS011;10743;52.160;20.910;2023-06-26T04:21:22;217.48;;;62.78;;
21170;SDS011;10743;52.160;20.910;2023-06-26T04:23:52;222.85;;;63.10;;
21170;SDS011;10743;52.160;20.910;2023-06-26T04:26:20;220.18;;;62.80;;
21170;SDS011;10743;52.160;20.910;2023-06-26T04:28:47;221.25;;;63.85;;
21170;SDS011;10743;52.160;20.910;2023-06-26T04:31:14;216.00;;;63.55;;
21170;SDS011;10743;52.160;20.910;2023-06-26T04:33:41;214.88;;;63.42;;
21170;SDS011;10743;52.160;20.910;2023-06-26T04:36:09;222.48;;;64.30;;
21170;SDS011;10743;52.160;20.910;2023-06-26T04:38:37;216.55;;;63.50;;
21170;SDS011;10743;52.160;20.910;2023-06-26T04:41:04;227.90;;;71.53;;
21170;SDS011;10743;52.160;20.910;2023-06-26T04:43:31;284.52;;;132.40;;
21170;SDS011;10743;52.160;20.910;2023-06-26T04:45:58;228.65;;;70.68;;
21170;SDS011;10743;52.160;20.910;2023-06-26T04:48:26;220.57;;;64.45;;
21170;SDS011;10743;52.160;20.910;2023-06-26T04:50:54;220.77;;;64.22;;
21170;SDS011;10743;52.160;20.910;2023-06-26T04:53:22;219.77;;;63.45;;
21170;SDS011;10743;52.160;20.910;2023-06-26T04:55:50;224.43;;;65.18;;
21170;SDS011;10743;52.160;20.910;2023-06-26T04:58:18;218.57;;;63.97;;
21170;SDS011;10743;52.160;20.910;2023-06-26T05:00:46;228.32;;;65.35;;
21170;SDS011;10743;52.160;20.910;2023-06-26T05:03:14;217.90;;;63.63;;
21170;SDS011;10743;52.160;20.910;2023-06-26T05:05:43;219.52;;;64.10;;
21170;SDS011;10743;52.160;20.910;2023-06-26T05:08:14;225.15;;;64.43;;
21170;SDS011;10743;52.160;20.910;2023-06-26T05:10:44;224.50;;;65.65;;
21170;SDS011;10743;52.160;20.910;2023-06-26T05:13:12;229.10;;;65.10;;
21170;SDS011;10743;52.160;20.910;2023-06-26T05:15:41;219.38;;;64.18;;
21170;SDS011;10743;52.160;20.910;2023-06-26T05:18:08;222.55;;;64.55;;
21170;SDS011;10743;52.160;20.910;2023-06-26T05:20:36;223.15;;;65.13;;
21170;SDS011;10743;52.160;20.910;2023-06-26T05:23:04;222.27;;;65.50;;
21170;SDS011;10743;52.160;20.910;2023-06-26T05:25:32;223.38;;;66.30;;
21170;SDS011;10743;52.160;20.910;2023-06-26T05:28:02;228.93;;;65.63;;
21170;SDS011;10743;52.160;20.910;2023-06-26T05:30:35;224.73;;;64.25;;
21170;SDS011;10743;52.160;20.910;2023-06-26T05:33:03;224.25;;;65.38;;
21170;SDS011;10743;52.160;20.910;2023-06-26T05:35:32;220.18;;;64.47;;
21170;SDS011;10743;52.160;20.910;2023-06-26T05:38:02;224.90;;;65.43;;
21170;SDS011;10743;52.160;20.910;2023-06-26T05:40:30;223.32;;;64.90;;
21170;SDS011;10743;52.160;20.910;2023-06-26T05:42:57;221.57;;;64.25;;
21170;SDS011;10743;52.160;20.910;2023-06-26T05:45:24;224.98;;;65.45;;
21170;SDS011;10743;52.160;20.910;2023-06-26T05:47:51;222.68;;;65.03;;
21170;SDS011;10743;52.160;20.910;2023-06-26T05:50:19;226.75;;;65.13;;
21170;SDS011;10743;52.160;20.910;2023-06-26T05:52:46;225.98;;;65.28;;
21170;SDS011;10743;52.160;20.910;2023-06-26T05:55:14;226.50;;;65.20;;
21170;SDS011;10743;52.160;20.910;2023-06-26T05:57:42;227.18;;;65.38;;
21170;SDS011;10743;52.160;20.910;2023-06-26T06:00:10;223.02;;;64.55;;
21170;SDS011;10743;52.160;20.910;2023-06-26T06:02:41;226.32;;;65.55;;
21170;SDS011;10743;52.160;20.910;2023-06-26T06:05:09;225.20;;;65.40;;
21170;SDS011;10743;52.160;20.910;2023-06-26T06:07:36;225.50;;;65.65;;
21170;SDS011;10743;52.160;20.910;2023-06-26T06:10:04;227.48;;;65.93;;
21170;SDS011;10743;52.160;20.910;2023-06-26T06:12:31;224.55;;;65.57;;
21170;SDS011;10743;52.160;20.910;2023-06-26T06:14:58;227.07;;;65.80;;
21170;SDS011;10743;52.160;20.910;2023-06-26T06:17:25;226.15;;;65.68;;
21170;SDS011;10743;52.160;20.910;2023-06-26T06:19:53;224.30;;;65.15;;
21170;SDS011;10743;52.160;20.910;2023-06-26T06:22:20;228.48;;;66.03;;
21170;SDS011;10743;52.160;20.910;2023-06-26T06:24:48;225.40;;;65.10;;
21170;SDS011;10743;52.160;20.910;2023-06-26T06:27:17;230.73;;;66.38;;
21170;SDS011;10743;52.160;20.910;2023-06-26T06:29:44;227.05;;;65.78;;
21170;SDS011;10743;52.160;20.910;2023-06-26T06:32:11;225.13;;;64.72;;
21170;SDS011;10743;52.160;20.910;2023-06-26T06:34:39;228.45;;;66.57;;
21170;SDS011;10743;52.160;20.910;2023-06-26T06:37:06;230.48;;;66.60;;
21170;SDS011;10743;52.160;20.910;2023-06-26T06:39:33;226.63;;;65.38;;
21170;SDS011;10743;52.160;20.910;2023-06-26T06:42:00;225.25;;;65.05;;
21170;SDS011;10743;52.160;20.910;2023-06-26T06:44:27;224.88;;;64.75;;
21170;SDS011;10743;52.160;20.910;2023-06-26T06:46:54;224.68;;;65.15;;
21170;SDS011;10743;52.160;20.910;2023-06-26T06:49:21;228.77;;;65.57;;
21170;SDS011;10743;52.160;20.910;2023-06-26T06:51:48;225.88;;;65.30;;
21170;SDS011;10743;52.160;20.910;2023-06-26T06:54:15;229.55;;;65.80;;
21170;SDS011;10743;52.160;20.910;2023-06-26T06:56:43;230.65;;;66.18;;
21170;SDS011;10743;52.160;20.910;2023-06-26T06:59:10;227.05;;;65.70;;
21170;SDS011;10743;52.160;20.910;2023-06-26T07:01:38;227.80;;;65.93;;
21170;SDS011;10743;52.160;20.910;2023-06-26T07:04:06;224.38;;;65.35;;
21170;SDS011;10743;52.160;20.910;2023-06-26T07:06:34;228.18;;;66.90;;
21170;SDS011;10743;52.160;20.910;2023-06-26T07:09:01;230.82;;;66.53;;
21170;SDS011;10743;52.160;20.910;2023-06-26T07:11:29;228.00;;;66.28;;
21170;SDS011;10743;52.160;20.910;2023-06-26T07:13:56;228.65;;;66.45;;
21170;SDS011;10743;52.160;20.910;2023-06-26T07:16:24;226.48;;;66.70;;
21170;SDS011;10743;52.160;20.910;2023-06-26T07:18:51;229.18;;;66.47;;
21170;SDS011;10743;52.160;20.910;2023-06-26T07:21:18;228.75;;;67.10;;
21170;SDS011;10743;52.160;20.910;2023-06-26T07:23:45;227.93;;;66.50;;
21170;SDS011;10743;52.160;20.910;2023-06-26T07:26:13;225.95;;;66.20;;
21170;SDS011;10743;52.160;20.910;2023-06-26T07:28:42;233.20;;;67.35;;
21170;SDS011;10743;52.160;20.910;2023-06-26T07:31:09;226.25;;;67.05;;
21170;SDS011;10743;52.160;20.910;2023-06-26T07:33:36;226.73;;;67.07;;
21170;SDS011;10743;52.160;20.910;2023-06-26T07:36:03;223.05;;;66.95;;
21170;SDS011;10743;52.160;20.910;2023-06-26T07:38:30;217.93;;;66.55;;
21170;SDS011;10743;52.160;20.910;2023-06-26T07:40:59;225.65;;;67.47;;
21170;SDS011;10743;52.160;20.910;2023-06-26T07:43:26;218.48;;;66.55;;
21170;SDS011;10743;52.160;20.910;2023-06-26T07:45:53;216.05;;;66.93;;
21170;SDS011;10743;52.160;20.910;2023-06-26T07:48:20;214.82;;;66.43;;
21170;SDS011;10743;52.160;20.910;2023-06-26T07:50:47;210.57;;;66.95;;
21170;SDS011;10743;52.160;20.910;2023-06-26T07:53:14;206.52;;;66.75;;
21170;SDS011;10743;52.160;20.910;2023-06-26T07:55:41;215.18;;;67.00;;
21170;SDS011;10743;52.160;20.910;2023-06-26T07:58:09;198.38;;;65.82;;
21170;SDS011;10743;52.160;20.910;2023-06-26T08:00:36;206.15;;;67.28;;
21170;SDS011;10743;52.160;20.910;2023-06-26T08:03:04;200.15;;;67.22;;
21170;SDS011;10743;52.160;20.910;2023-06-26T08:05:35;191.25;;;66.57;;
21170;SDS011;10743;52.160;20.910;2023-06-26T08:08:03;197.05;;;66.72;;
21170;SDS011;10743;52.160;20.910;2023-06-26T08:10:30;194.85;;;66.75;;
21170;SDS011;10743;52.160;20.910;2023-06-26T08:12:57;200.93;;;67.38;;
21170;SDS011;10743;52.160;20.910;2023-06-26T08:15:24;201.70;;;67.78;;
21170;SDS011;10743;52.160;20.910;2023-06-26T08:17:52;185.20;;;67.57;;
21170;SDS011;10743;52.160;20.910;2023-06-26T08:20:19;184.45;;;67.47;;
21170;SDS011;10743;52.160;20.910;2023-06-26T08:22:46;176.15;;;66.93;;
21170;SDS011;10743;52.160;20.910;2023-06-26T08:25:15;182.20;;;66.85;;
21170;SDS011;10743;52.160;20.910;2023-06-26T08:27:42;178.70;;;66.47;;
21170;SDS011;10743;52.160;20.910;2023-06-26T08:30:10;169.23;;;65.97;;
21170;SDS011;10743;52.160;20.910;2023-06-26T08:32:37;176.50;;;66.68;;
21170;SDS011;10743;52.160;20.910;2023-06-26T08:35:05;171.38;;;66.85;;
21170;SDS011;10743;52.160;20.910;2023-06-26T08:37:33;165.18;;;65.90;;
21170;SDS011;10743;52.160;20.910;2023-06-26T08:40:00;158.05;;;65.10;;
21170;SDS011;10743;52.160;20.910;2023-06-26T08:42:27;157.30;;;64.93;;
21170;SDS011;10743;52.160;20.910;2023-06-26T08:44:54;153.80;;;65.03;;
21170;SDS011;10743;52.160;20.910;2023-06-26T08:47:27;149.50;;;65.20;;
21170;SDS011;10743;52.160;20.910;2023-06-26T08:50:00;149.65;;;63.58;;
21170;SDS011;10743;52.160;20.910;2023-06-26T08:52:52;155.65;;;65.40;;
21170;SDS011;10743;52.160;20.910;2023-06-26T08:55:27;143.48;;;62.83;;
21170;SDS011;10743;52.160;20.910;2023-06-26T08:57:56;147.18;;;63.42;;
21170;SDS011;10743;52.160;20.910;2023-06-26T09:00:24;146.68;;;62.67;;
21170;SDS011;10743;52.160;20.910;2023-06-26T09:02:51;151.15;;;64.05;;
21170;SDS011;10743;52.160;20.910;2023-06-26T09:05:18;160.40;;;65.15;;
21170;SDS011;10743;52.160;20.910;2023-06-26T09:07:45;148.75;;;63.10;;
21170;SDS011;10743;52.160;20.910;2023-06-26T09:10:13;143.07;;;62.92;;
21170;SDS011;10743;52.160;20.910;2023-06-26T09:12:40;138.70;;;62.17;;
21170;SDS011;10743;52.160;20.910;2023-06-26T09:15:07;134.98;;;61.33;;
21170;SDS011;10743;52.160;20.910;2023-06-26T09:17:38;130.75;;;61.15;;
21170;SDS011;10743;52.160;20.910;2023-06-26T09:20:08;131.55;;;61.30;;
21170;SDS011;10743;52.160;20.910;2023-06-26T09:22:37;128.35;;;60.08;;
21170;SDS011;10743;52.160;20.910;2023-06-26T09:25:07;131.30;;;61.35;;
21170;SDS011;10743;52.160;20.910;2023-06-26T09:27:36;124.55;;;60.45;;
21170;SDS011;10743;52.160;20.910;2023-06-26T09:30:03;129.70;;;61.38;;
21170;SDS011;10743;52.160;20.910;2023-06-26T09:32:34;125.32;;;60.47;;
21170;SDS011;10743;52.160;20.910;2023-06-26T09:35:03;124.75;;;60.92;;
21170;SDS011;10743;52.160;20.910;2023-06-26T09:37:31;111.70;;;57.97;;
21170;SDS011;10743;52.160;20.910;2023-06-26T09:40:01;115.38;;;59.42;;
21170;SDS011;10743;52.160;20.910;2023-06-26T09:42:29;117.25;;;58.90;;
21170;SDS011;10743;52.160;20.910;2023-06-26T09:44:56;114.97;;;58.95;;
21170;SDS011;10743;52.160;20.910;2023-06-26T09:47:24;120.38;;;60.28;;
21170;SDS011;10743;52.160;20.910;2023-06-26T09:49:51;117.25;;;60.13;;
21170;SDS011;10743;52.160;20.910;2023-06-26T09:52:21;102.63;;;57.78;;
21170;SDS011;10743;52.160;20.910;2023-06-26T09:55:06;97.03;;;56.95;;
21170;SDS011;10743;52.160;20.910;2023-06-26T09:57:38;82.60;;;53.17;;
21170;SDS011;10743;52.160;20.910;2023-06-26T10:00:06;80.93;;;52.92;;
21170;SDS011;10743;52.160;20.910;2023-06-26T10:02:38;73.38;;;51.30;;
21170;SDS011;10743;52.160;20.910;2023-06-26T10:05:05;71.65;;;50.92;;
21170;SDS011;10743;52.160;20.910;2023-06-26T10:07:33;79.32;;;52.53;;
21170;SDS011;10743;52.160;20.910;2023-06-26T10:10:02;72.30;;;50.45;;
21170;SDS011;10743;52.160;20.910;2023-06-26T10:12:32;74.95;;;50.67;;
21170;SDS011;10743;52.160;20.910;2023-06-26T10:14:59;71.75;;;50.50;;
21170;SDS011;10743;52.160;20.910;2023-06-26T10:17:32;70.68;;;50.15;;
21170;SDS011;10743;52.160;20.910;2023-06-26T10:20:03;68.75;;;49.53;;
21170;SDS011;10743;52.160;20.910;2023-06-26T10:22:33;55.65;;;45.95;;
21170;SDS011;10743;52.160;20.910;2023-06-26T10:25:08;57.22;;;46.55;;
21170;SDS011;10743;52.160;20.910;2023-06-26T10:27:39;53.10;;;45.33;;
21170;SDS011;10743;52.160;20.910;2023-06-26T10:30:11;57.63;;;45.92;;
21170;SDS011;10743;52.160;20.910;2023-06-26T10:32:45;65.45;;;47.80;;
21170;SDS011;10743;52.160;20.910;2023-06-26T10:35:13;78.53;;;50.35;;
21170;SDS011;10743;52.160;20.910;2023-06-26T10:37:44;69.50;;;50.20;;
21170;SDS011;10743;52.160;20.910;2023-06-26T10:40:24;70.68;;;50.83;;
21170;SDS011;10743;52.160;20.910;2023-06-26T10:43:06;70.93;;;51.05;;
21170;SDS011;10743;52.160;20.910;2023-06-26T10:45:35;69.05;;;50.03;;
21170;SDS011;10743;52.160;20.910;2023-06-26T10:48:03;63.53;;;48.00;;
21170;SDS011;10743;52.160;20.910;2023-06-26T10:50:31;65.53;;;49.38;;
21170;SDS011;10743;52.160;20.910;2023-06-26T10:55:55;68.65;;;49.17;;
21170;SDS011;10743;52.160;20.910;2023-06-26T11:01:19;70.43;;;50.22;;
21170;SDS011;10743;52.160;20.910;2023-06-26T11:06:25;62.05;;;47.50;;
21170;SDS011;10743;52.160;20.910;2023-06-26T11:09:00;61.42;;;47.08;;
21170;SDS011;10743;52.160;20.910;2023-06-26T11:14:26;47.58;;;42.38;;
21170;SDS011;10743;52.160;20.910;2023-06-26T11:16:56;46.13;;;41.13;;
21170;SDS011;10743;52.160;20.910;2023-06-26T11:19:25;42.88;;;38.72;;
21170;SDS011;10743;52.160;20.910;2023-06-26T11:22:12;40.63;;;36.88;;
21170;SDS011;10743;52.160;20.910;2023-06-26T11:24:41;38.78;;;35.05;;
21170;SDS011;10743;52.160;20.910;2023-06-26T11:27:10;43.88;;;39.50;;
21170;SDS011;10743;52.160;20.910;2023-06-26T11:29:37;44.47;;;39.88;;
21170;SDS011;10743;52.160;20.910;2023-06-26T11:32:04;44.75;;;40.17;;
21170;SDS011;10743;52.160;20.910;2023-06-26T11:34:32;48.40;;;42.47;;
21170;SDS011;10743;52.160;20.910;2023-06-26T11:37:01;51.25;;;43.42;;
21170;SDS011;10743;52.160;20.910;2023-06-26T11:39:28;46.58;;;41.60;;
21170;SDS011;10743;52.160;20.910;2023-06-26T11:41:55;41.17;;;37.08;;
21170;SDS011;10743;52.160;20.910;2023-06-26T11:44:23;30.73;;;28.23;;
21170;SDS011;10743;52.160;20.910;2023-06-26T11:46:53;29.75;;;27.35;;
21170;SDS011;10743;52.160;20.910;2023-06-26T11:49:22;24.77;;;22.58;;
21170;SDS011;10743;52.160;20.910;2023-06-26T11:51:52;23.70;;;21.70;;
21170;SDS011;10743;52.160;20.910;2023-06-26T11:54:25;21.33;;;19.65;;
21170;SDS011;10743;52.160;20.910;2023-06-26T11:56:54;24.30;;;22.38;;
21170;SDS011;10743;52.160;20.910;2023-06-26T11:59:23;23.45;;;21.45;;
21170;SDS011;10743;52.160;20.910;2023-06-26T12:01:59;26.75;;;24.70;;
21170;SDS011;10743;52.160;20.910;2023-06-26T12:04:31;34.17;;;30.98;;
21170;SDS011;10743;52.160;20.910;2023-06-26T12:06:58;40.70;;;36.33;;
21170;SDS011;10743;52.160;20.910;2023-06-26T12:09:26;39.65;;;35.92;;
21170;SDS011;10743;52.160;20.910;2023-06-26T12:11:54;40.80;;;36.70;;
21170;SDS011;10743;52.160;20.910;2023-06-26T12:14:23;41.03;;;37.17;;
21170;SDS011;10743;52.160;20.910;2023-06-26T12:16:52;43.20;;;38.72;;
21170;SDS011;10743;52.160;20.910;2023-06-26T12:19:24;42.55;;;38.38;;
21170;SDS011;10743;52.160;20.910;2023-06-26T12:21:54;41.60;;;37.35;;
21170;SDS011;10743;52.160;20.910;2023-06-26T12:24:23;44.17;;;39.63;;
21170;SDS011;10743;52.160;20.910;2023-06-26T12:26:54;62.15;;;48.05;;
21170;SDS011;10743;52.160;20.910;2023-06-26T12:29:31;50.20;;;43.03;;
21170;SDS011;10743;52.160;20.910;2023-06-26T12:31:59;45.78;;;40.95;;
21170;SDS011;10743;52.160;20.910;2023-06-26T12:34:30;34.00;;;31.08;;
21170;SDS011;10743;52.160;20.910;2023-06-26T12:37:04;36.40;;;33.10;;
21170;SDS011;10743;52.160;20.910;2023-06-26T12:42:45;15.15;;;13.68;;
21170;SDS011;10743;52.160;20.910;2023-06-26T12:45:13;23.05;;;21.20;;
21170;SDS011;10743;52.160;20.910;2023-06-26T12:48:07;20.00;;;18.33;;
21170;SDS011;10743;52.160;20.910;2023-06-26T12:50:43;14.57;;;13.15;;
21170;SDS011;10743;52.160;20.910;2023-06-26T12:53:14;24.77;;;22.30;;
21170;SDS011;10743;52.160;20.910;2023-06-26T12:55:41;19.77;;;18.05;;
21170;SDS011;10743;52.160;20.910;2023-06-26T12:58:08;15.75;;;14.05;;
21170;SDS011;10743;52.160;20.910;2023-06-26T13:00:38;13.32;;;9.40;;
21170;SDS011;10743;52.160;20.910;2023-06-26T13:03:07;14.18;;;10.85;;
21170;SDS011;10743;52.160;20.910;2023-06-26T13:05:37;13.82;;;12.55;;
21170;SDS011;10743;52.160;20.910;2023-06-26T13:08:04;14.43;;;12.95;;
21170;SDS011;10743;52.160;20.910;2023-06-26T13:10:32;10.18;;;6.22;;
21170;SDS011;10743;52.160;20.910;2023-06-26T13:12:59;7.43;;;6.32;;
21170;SDS011;10743;52.160;20.910;2023-06-26T13:15:26;6.65;;;5.32;;
21170;SDS011;10743;52.160;20.910;2023-06-26T13:17:54;10.40;;;5.82;;
21170;SDS011;10743;52.160;20.910;2023-06-26T13:20:21;9.73;;;5.75;;
21170;SDS011;10743;52.160;20.910;2023-06-26T13:22:49;9.88;;;6.13;;
21170;SDS011;10743;52.160;20.910;2023-06-26T13:25:16;11.00;;;7.18;;
21170;SDS011;10743;52.160;20.910;2023-06-26T13:27:43;11.60;;;5.63;;
21170;SDS011;10743;52.160;20.910;2023-06-26T13:30:10;9.85;;;5.70;;
21170;SDS011;10743;52.160;20.910;2023-06-26T13:32:38;8.63;;;5.57;;
21170;SDS011;10743;52.160;20.910;2023-06-26T13:35:05;13.85;;;7.05;;
21170;SDS011;10743;52.160;20.910;2023-06-26T13:37:33;9.10;;;6.53;;
21170;SDS011;10743;52.160;20.910;2023-06-26T13:40:00;14.15;;;5.88;;
21170;SDS011;10743;52.160;20.910;2023-06-26T13:42:29;11.80;;;5.10;;
21170;SDS011;10743;52.160;20.910;2023-06-26T13:44:56;16.65;;;5.65;;
21170;SDS011;10743;52.160;20.910;2023-06-26T13:47:33;10.45;;;6.07;;
21170;SDS011;10743;52.160;20.910;2023-06-26T13:50:01;11.82;;;6.40;;
21170;SDS011;10743;52.160;20.910;2023-06-26T13:52:28;6.60;;;5.93;;
21170;SDS011;10743;52.160;20.910;2023-06-26T13:54:55;9.70;;;7.22;;
21170;SDS011;10743;52.160;20.910;2023-06-26T13:57:22;10.10;;;7.45;;
21170;SDS011;10743;52.160;20.910;2023-06-26T13:59:49;10.60;;;8.07;;
21170;SDS011;10743;52.160;20.910;2023-06-26T14:02:16;8.10;;;6.53;;
21170;SDS011;10743;52.160;20.910;2023-06-26T14:04:43;10.15;;;8.15;;
21170;SDS011;10743;52.160;20.910;2023-06-26T14:07:11;14.32;;;13.10;;
21170;SDS011;10743;52.160;20.910;2023-06-26T14:09:38;19.10;;;12.40;;
21170;SDS011;10743;52.160;20.910;2023-06-26T14:12:05;11.68;;;10.50;;
21170;SDS011;10743;52.160;20.910;2023-06-26T14:14:33;11.07;;;9.80;;
21170;SDS011;10743;52.160;20.910;2023-06-26T14:17:01;17.77;;;16.15;;
21170;SDS011;10743;52.160;20.910;2023-06-26T14:19:28;17.98;;;16.65;;
21170;SDS011;10743;52.160;20.910;2023-06-26T14:21:55;19.52;;;17.75;;
21170;SDS011;10743;52.160;20.910;2023-06-26T14:24:22;22.40;;;20.40;;
21170;SDS011;10743;52.160;20.910;2023-06-26T14:26:49;15.90;;;14.60;;
21170;SDS011;10743;52.160;20.910;2023-06-26T14:29:16;19.38;;;17.77;;
21170;SDS011;10743;52.160;20.910;2023-06-26T14:31:45;16.60;;;15.10;;